Time;durP1;ratioP1;P1;durP2;ratioP2;P2;SDS_P1;SDS_P2;PMS_P1;PMS_P2;Temp;Humidity;BMP_temperature;BMP_pressure;BME280_temperature;BME280_humidity;BME280_pressure;Samples;Min_cycle;Max_cycle;Signal;HPM_P1;HPM_P2
2022/09/17 00:04:11;;;;;;;3.53;1.43;;;11.40;1.00;;;;;;10559222;28;20316;-81
2022/09/17 00:09:33;;;;;;;3.33;1.20;;;11.40;1.00;;;;;;10549693;28;20199;-80
2022/09/17 00:14:54;;;;;;;5.93;1.37;;;11.40;1.00;;;;;;10550739;28;20522;-80
2022/09/17 00:20:17;;;;;;;14.67;7.27;;;11.40;1.00;;;;;;10557629;28;20196;-80
2022/09/17 00:25:42;;;;;;;20.83;9.93;;;11.40;1.00;;;;;;10550376;28;20217;-82
2022/09/17 00:31:08;;;;;;;13.87;6.90;;;11.40;1.00;;;;;;10564356;28;20227;-81
2022/09/17 00:36:30;;;;;;;16.77;6.10;;;11.30;1.00;;;;;;10566427;28;20556;-80
2022/09/17 00:41:51;;;;;;;9.97;5.17;;;11.30;1.00;;;;;;10559691;28;20244;-80
2022/09/17 00:47:30;;;;;;;4.03;1.50;;;11.30;1.00;;;;;;10563584;28;20448;-79
2022/09/17 00:53:13;;;;;;;2.97;1.50;;;11.30;1.00;;;;;;10548886;28;20452;-81
2022/09/17 00:58:35;;;;;;;4.20;1.40;;;11.30;1.00;;;;;;10563297;28;20191;-80
2022/09/17 01:04:00;;;;;;;3.23;1.40;;;11.30;1.00;;;;;;10572684;28;20252;-86
2022/09/17 01:09:39;;;;;;;4.40;1.83;;;11.20;1.00;;;;;;10548286;28;20209;-80
2022/09/17 01:15:06;;;;;;;5.80;1.77;;;11.20;1.00;;;;;;10548026;28;20193;-80
2022/09/17 01:20:55;;;;;;;4.80;1.37;;;11.20;1.00;;;;;;10540304;28;20205;-83
2022/09/17 01:26:35;;;;;;;2.57;0.97;;;11.10;1.00;;;;;;10563103;28;20567;-81
2022/09/17 01:32:05;;;;;;;4.40;1.00;;;11.10;1.00;;;;;;10561263;28;20258;-82
2022/09/17 01:37:33;;;;;;;2.63;1.27;;;11.20;1.00;;;;;;10561667;28;20198;-81
2022/09/17 01:43:23;;;;;;;3.23;1.20;;;11.20;1.00;;;;;;10561183;28;20200;-80
2022/09/17 01:48:49;;;;;;;2.60;1.00;;;11.20;1.00;;;;;;10543790;28;20213;-81
2022/09/17 01:54:33;;;;;;;3.27;1.37;;;11.20;1.00;;;;;;10546909;28;20216;-79
2022/09/17 02:00:22;;;;;;;5.37;0.73;;;11.20;1.00;;;;;;10557361;28;20222;-82
2022/09/17 02:05:57;;;;;;;2.97;0.80;;;11.20;1.00;;;;;;10557846;28;20236;-80
2022/09/17 02:11:19;;;;;;;2.13;1.00;;;11.20;1.00;;;;;;10546556;28;20197;-80
2022/09/17 02:16:50;;;;;;;3.87;0.87;;;11.20;1.00;;;;;;10546676;28;20216;-82
2022/09/17 02:22:40;;;;;;;3.20;0.90;;;11.20;1.00;;;;;;10524905;28;20208;-79
2022/09/17 02:28:04;;;;;;;1.27;0.83;;;11.20;1.00;;;;;;10546277;28;20582;-80
2022/09/17 02:33:32;;;;;;;4.80;1.03;;;11.20;1.00;;;;;;10568244;28;20222;-81
2022/09/17 02:39:00;;;;;;;2.47;1.00;;;11.20;1.00;;;;;;10568937;28;20183;-81
2022/09/17 02:44:31;;;;;;;6.00;1.10;;;11.20;1.00;;;;;;10540525;28;20219;-81
2022/09/17 02:50:17;;;;;;;7.20;2.30;;;11.10;1.00;;;;;;10497875;28;20500;-80
2022/09/17 02:55:49;;;;;;;3.70;1.80;;;11.10;1.00;;;;;;10526452;28;20199;-80
2022/09/17 03:01:24;;;;;;;3.10;1.33;;;11.20;1.00;;;;;;10526919;28;20200;-81
2022/09/17 03:06:46;;;;;;;4.90;2.27;;;11.20;1.00;;;;;;10568382;28;20253;-81
2022/09/17 03:12:07;;;;;;;3.63;1.73;;;11.20;1.00;;;;;;10567253;28;20187;-81
2022/09/17 03:17:29;;;;;;;2.77;1.13;;;11.20;1.00;;;;;;10567048;28;20491;-81
2022/09/17 03:22:53;;;;;;;1.97;0.83;;;11.20;1.00;;;;;;10538791;28;20390;-80
2022/09/17 03:28:15;;;;;;;4.03;0.97;;;11.20;99.90;;;;;;10523331;28;20197;-82
2022/09/17 03:33:36;;;;;;;3.20;1.00;;;11.30;1.00;;;;;;10544392;28;20230;-81
2022/09/17 03:38:58;;;;;;;4.77;1.70;;;11.30;1.00;;;;;;10567132;28;20199;-82
2022/09/17 03:44:21;;;;;;;6.23;1.00;;;11.30;1.00;;;;;;10565750;28;20227;-82
2022/09/17 03:49:43;;;;;;;3.17;0.93;;;11.30;99.90;;;;;;10551529;28;20542;-81
2022/09/17 03:55:05;;;;;;;6.13;0.93;;;11.20;1.00;;;;;;10551394;28;20199;-81
2022/09/17 04:00:27;;;;;;;2.67;1.10;;;11.20;1.00;;;;;;10551060;28;20480;-81
2022/09/17 04:05:48;;;;;;;2.20;1.23;;;11.10;1.00;;;;;;10564868;28;20537;-81
2022/09/17 04:11:10;;;;;;;2.33;1.07;;;11.00;1.00;;;;;;10564759;28;20203;-82
2022/09/17 04:16:31;;;;;;;4.07;0.90;;;11.00;1.00;;;;;;10551072;28;20186;-81
2022/09/17 04:21:52;;;;;;;7.53;1.70;;;10.90;5.10;;;;;;10536066;28;20205;-81
2022/09/17 04:27:14;;;;;;;2.57;1.10;;;10.90;1.00;;;;;;10522475;28;20221;-82
2022/09/17 04:32:35;;;;;;;3.73;1.50;;;10.80;1.00;;;;;;10507415;28;20266;-81
2022/09/17 04:37:57;;;;;;;4.87;2.00;;;10.80;26.90;;;;;;10550357;28;20473;-82
2022/09/17 04:43:18;;;;;;;4.53;1.53;;;10.70;37.20;;;;;;10549914;28;20201;-82
2022/09/17 04:48:40;;;;;;;1.97;1.40;;;10.80;48.30;;;;;;10549557;28;20220;-82
2022/09/17 04:54:01;;;;;;;2.90;1.70;;;10.80;72.80;;;;;;10562503;28;20202;-82
2022/09/17 04:59:22;;;;;;;6.07;2.13;;;10.90;99.50;;;;;;10549541;28;20485;-82
2022/09/17 05:04:44;;;;;;;6.30;1.67;;;10.70;35.40;;;;;;10562880;28;20247;-81
2022/09/17 05:10:06;;;;;;;5.07;2.30;;;10.80;90.00;;;;;;10574492;28;20272;-82
2022/09/17 05:15:28;;;;;;;4.40;2.20;;;10.90;87.30;;;;;;10563701;28;20408;-80
2022/09/17 05:20:49;;;;;;;3.40;2.00;;;10.90;46.50;;;;;;10533421;28;20232;-81
2022/09/17 05:26:11;;;;;;;6.10;2.57;;;11.00;49.00;;;;;;10524539;28;20225;-81
2022/09/17 05:31:32;;;;;;;4.13;2.20;;;11.10;36.00;;;;;;10513150;28;20259;-81
2022/09/17 05:36:53;;;;;;;4.50;2.13;;;11.10;55.40;;;;;;10547481;28;20202;-81
2022/09/17 05:42:14;;;;;;;5.50;2.33;;;11.10;46.70;;;;;;10547236;28;20207;-81
2022/09/17 05:47:35;;;;;;;4.70;1.83;;;11.20;42.90;;;;;;10561622;28;20442;-81
2022/09/17 05:53:03;;;;;;;5.70;2.63;;;11.20;76.60;;;;;;10546653;28;20190;-81
2022/09/17 05:58:24;;;;;;;2.93;1.77;;;11.30;50.00;;;;;;10546633;28;20202;-81
2022/09/17 06:03:46;;;;;;;5.07;2.30;;;11.30;59.70;;;;;;10538771;28;20203;-82
2022/09/17 06:09:08;;;;;;;5.20;1.97;;;11.30;17.10;;;;;;10532528;28;20372;-82
2022/09/17 06:14:30;;;;;;;4.13;1.93;;;11.30;38.10;;;;;;10560895;28;20191;-83
2022/09/17 06:19:51;;;;;;;3.30;1.73;;;11.40;16.80;;;;;;10538160;28;20284;-82
2022/09/17 06:25:12;;;;;;;5.03;1.80;;;11.70;1.00;;;;;;10560542;28;20217;-83
2022/09/17 06:30:35;;;;;;;6.13;2.50;;;11.90;1.00;;;;;;10545440;28;20298;-84
2022/09/17 06:35:59;;;;;;;9.17;4.10;;;12.00;1.00;;;;;;10546051;28;20218;-86
2022/09/17 06:41:20;;;;;;;6.57;3.27;;;12.10;1.00;;;;;;10560231;28;20195;-84
2022/09/17 06:46:43;;;;;;;4.03;2.33;;;12.20;1.00;;;;;;10545751;28;20442;-85
2022/09/17 06:52:04;;;;;;;3.40;2.20;;;12.30;1.00;;;;;;10552387;28;20466;-82
2022/09/17 06:57:25;;;;;;;3.53;2.40;;;12.20;1.00;;;;;;10545929;28;20385;-81
2022/09/17 07:02:57;;;;;;;6.23;2.37;;;12.10;1.00;;;;;;10559318;28;20209;-86
2022/09/17 07:08:18;;;;;;;5.23;2.30;;;12.00;1.00;;;;;;10545182;28;20562;-81
2022/09/17 07:13:41;;;;;;;4.60;2.30;;;12.00;10.90;;;;;;10544970;28;20203;-81
2022/09/17 07:19:03;;;;;;;5.77;2.87;;;12.00;44.80;;;;;;10537587;28;20211;-80
2022/09/17 07:24:24;;;;;;;6.00;2.57;;;12.10;27.10;;;;;;10553002;28;20286;-81
2022/09/17 07:29:48;;;;;;;6.57;2.77;;;12.30;2.90;;;;;;10552856;28;20211;-85
2022/09/17 07:35:14;;;;;;;11.40;5.00;;;12.30;21.20;;;;;;10541388;28;20195;-82
2022/09/17 07:40:37;;;;;;;8.70;3.90;;;12.40;17.40;;;;;;10566930;28;20242;-81
2022/09/17 07:46:02;;;;;;;8.80;3.93;;;12.60;1.00;;;;;;10552152;28;20231;-83
2022/09/17 07:51:28;;;;;;;11.07;6.60;;;12.80;1.00;;;;;;10571249;28;20484;-84
2022/09/17 07:56:50;;;;;;;7.57;4.23;;;13.30;1.00;;;;;;10537836;28;20236;-84
2022/09/17 08:02:13;;;;;;;9.13;4.20;;;13.30;1.00;;;;;;10529008;28;20207;-81
2022/09/17 08:07:34;;;;;;;7.90;4.10;;;13.30;1.00;;;;;;10523731;28;20221;-81
2022/09/17 08:12:56;;;;;;;6.30;3.17;;;13.30;1.00;;;;;;10523547;28;20219;-82
2022/09/17 08:18:18;;;;;;;5.27;3.03;;;13.30;1.00;;;;;;10508228;28;20196;-81
2022/09/17 08:23:40;;;;;;;11.50;4.30;;;13.40;1.00;;;;;;10535254;28;20201;-80
2022/09/17 08:29:01;;;;;;;3.70;2.87;;;13.50;1.00;;;;;;10549745;28;20204;-82
2022/09/17 08:34:22;;;;;;;4.47;2.80;;;13.90;1.00;;;;;;10549683;28;20228;-82
2022/09/17 08:39:44;;;;;;;7.72;2.60;;;;;;;;;;10550034;28;20191;-85
2022/09/17 08:45:12;;;;;;;4.13;2.20;;;15.90;99.90;;;;;;10549243;28;20256;-81
2022/09/17 08:50:40;;;;;;;2.85;1.40;;;16.50;1.00;;;;;;10548807;28;20203;-82
2022/09/17 08:56:17;;;;;;;6.35;2.80;;;17.20;99.90;;;;;;10548854;28;20197;-83
2022/09/17 09:01:55;;;;;;;5.25;1.75;;;17.30;1.00;;;;;;10531211;28;20210;-80
2022/09/17 09:07:23;;;;;;;2.28;1.10;;;18.10;1.00;;;;;;10522247;28;20230;-83
2022/09/17 09:12:45;;;;;;;3.13;1.58;;;18.00;88.30;;;;;;10495205;28;20198;-82
2022/09/17 09:18:17;;;;;;;2.08;1.02;;;17.40;17.80;;;;;;10511184;28;20510;-81
2022/09/17 09:23:55;;;;;;;1.40;1.00;;;16.90;57.20;;;;;;10539463;28;20398;-81
2022/09/17 09:29:28;;;;;;;4.70;1.40;;;16.40;1.00;;;;;;10514563;28;20204;-81
2022/09/17 09:34:50;;;;;;;5.72;1.75;;;;;;;;;;10456277;28;20202;-86
2022/09/17 09:40:27;;;;;;;0.77;0.70;;;18.30;99.90;;;;;;10423065;28;20224;-84
2022/09/17 09:46:07;;;;;;;3.15;0.88;;;18.60;99.90;;;;;;10422607;28;20238;-83
2022/09/17 09:51:31;;;;;;;0.88;0.55;;;18.90;99.90;;;;;;10431507;28;20219;-82
2022/09/17 09:57:08;;;;;;;1.38;0.63;;;;;;;;;;10466875;28;20196;-81
2022/09/17 10:02:31;;;;;;;3.20;1.15;;;19.70;1.00;;;;;;10442481;28;20196;-84
2022/09/17 10:07:52;;;;;;;0.90;0.60;;;18.80;1.00;;;;;;10422463;28;20589;-84
2022/09/17 10:13:13;;;;;;;0.60;0.60;;;18.50;1.00;;;;;;10421804;28;20199;-81
2022/09/17 10:18:35;;;;;;;1.48;0.60;;;19.50;99.90;;;;;;10407882;28;20199;-81
2022/09/17 10:23:57;;;;;;;2.80;1.05;;;19.80;1.00;;;;;;10474050;28;20233;-82
2022/09/17 10:29:19;;;;;;;5.30;0.88;;;18.10;99.90;;;;;;10477831;28;20266;-80
2022/09/17 10:34:55;;;;;;;0.60;0.60;;;16.90;1.00;;;;;;10559808;28;20232;-81
2022/09/17 10:40:17;;;;;;;3.83;1.00;;;16.30;99.90;;;;;;10545885;28;20196;-80
2022/09/17 10:45:42;;;;;;;2.47;0.60;;;16.80;99.90;;;;;;10559928;28;20225;-82
2022/09/17 10:51:05;;;;;;;0.68;0.63;;;16.70;99.90;;;;;;10562866;28;20192;-82
2022/09/17 10:56:33;;;;;;;0.68;0.40;;;;;;;;;;10569121;28;20191;-85
2022/09/17 11:02:04;;;;;;;2.00;0.70;;;20.80;96.50;;;;;;10584536;28;20202;-81
2022/09/17 11:08:00;;;;;;;1.55;1.13;;;21.20;1.00;;;;;;10554196;28;20223;-83
2022/09/17 11:13:36;;;;;;;5.70;1.30;;;18.30;95.40;;;;;;10554176;28;20252;-83
2022/09/17 11:19:25;;;;;;;4.72;1.25;;;18.10;99.90;;;;;;10538739;28;20219;-84
2022/09/17 11:25:22;;;;;;;4.43;1.33;;;17.00;1.00;;;;;;10549445;28;20210;-83
2022/09/17 11:31:09;;;;;;;2.28;1.40;;;16.60;1.00;;;;;;10567637;28;20244;-85
2022/09/17 11:36:45;;;;;;;6.30;1.23;;;18.10;99.90;;;;;;10567330;28;20264;-82
2022/09/17 11:42:19;;;;;;;2.22;0.75;;;18.90;99.90;;;;;;10565904;28;20191;-81
2022/09/17 11:47:50;;;;;;;0.93;0.52;;;19.60;41.70;;;;;;10566776;28;20286;-82
2022/09/17 11:53:43;;;;;;;1.10;0.63;;;19.70;99.90;;;;;;10566483;28;20195;-82
2022/09/17 11:59:20;;;;;;;3.78;0.65;;;19.50;1.00;;;;;;10553829;28;20269;-81
2022/09/17 12:04:44;;;;;;;2.63;0.95;;;18.70;99.90;;;;;;10524214;28;20441;-81
2022/09/17 12:10:34;;;;;;;2.67;0.60;;;18.10;99.90;;;;;;10523940;28;20240;-86
2022/09/17 12:16:18;;;;;;;0.77;0.57;;;17.60;99.90;;;;;;10509481;28;20206;-81
2022/09/17 12:21:47;;;;;;;0.98;0.70;;;17.20;1.00;;;;;;10558960;28;20514;-83
2022/09/17 12:27:23;;;;;;;0.65;0.63;;;17.00;21.50;;;;;;10497871;28;20255;-82
2022/09/17 12:32:56;;;;;;;3.97;1.00;;;16.90;1.00;;;;;;10525478;28;20300;-87
2022/09/17 12:38:34;;;;;;;1.42;0.80;;;17.40;99.90;;;;;;10565518;28;20201;-81
2022/09/17 12:44:02;;;;;;;3.83;0.77;;;19.30;7.60;;;;;;10550225;28;20212;-82
2022/09/17 12:49:44;;;;;;;0.80;0.70;;;20.00;1.00;;;;;;10564183;28;20218;-82
2022/09/17 12:55:31;;;;;;;1.05;0.60;;;20.70;1.00;;;;;;10521813;28;20393;-81
2022/09/17 13:01:23;;;;;;;1.90;0.60;;;20.90;1.00;;;;;;10532837;28;20493;-82
2022/09/17 13:06:59;;;;;;;2.70;0.75;;;20.70;99.90;;;;;;10549274;28;20214;-80
2022/09/17 13:12:26;;;;;;;2.58;0.60;;;20.70;1.00;;;;;;10548251;28;20251;-82
2022/09/17 13:18:03;;;;;;;1.92;0.90;;;19.90;1.00;;;;;;10548251;28;20445;-81
2022/09/17 13:23:46;;;;;;;1.45;0.80;;;19.40;2.70;;;;;;10536510;28;20197;-79
2022/09/17 13:29:09;;;;;;;2.20;0.73;;;18.90;99.90;;;;;;10562798;28;20224;-80
2022/09/17 13:34:31;;;;;;;1.42;0.88;;;19.10;99.90;;;;;;10548073;28;20313;-81
2022/09/17 13:39:52;;;;;;;4.00;1.60;;;19.80;99.90;;;;;;10547620;28;20205;-80
2022/09/17 13:45:15;;;;;;;3.35;0.90;;;20.00;1.00;;;;;;10561990;28;20547;-85
2022/09/17 13:50:42;;;;;;;2.22;0.80;;;19.20;1.00;;;;;;10562497;28;20186;-81
2022/09/17 13:56:33;;;;;;;2.95;0.55;;;18.80;99.90;;;;;;10564336;28;20228;-80
2022/09/17 14:02:00;;;;;;;1.02;0.70;;;19.20;99.90;;;;;;10545362;28;20258;-82
2022/09/17 14:07:27;;;;;;;2.95;0.80;;;19.40;99.90;;;;;;10520023;28;20219;-80
2022/09/17 14:12:59;;;;;;;6.97;1.48;;;18.90;94.90;;;;;;10519336;28;20219;-83
2022/09/17 14:18:26;;;;;;;2.35;1.08;;;18.20;99.90;;;;;;10512849;28;20374;-80
2022/09/17 14:23:54;;;;;;;4.13;1.17;;;17.70;1.00;;;;;;10553881;28;20198;-81
2022/09/17 14:29:28;;;;;;;3.33;1.00;;;17.10;99.90;;;;;;10513065;28;20240;-87
2022/09/17 14:34:50;;;;;;;4.05;1.55;;;16.40;99.90;;;;;;10513099;28;20209;-81
2022/09/17 14:40:16;;;;;;;3.50;1.25;;;15.80;1.00;;;;;;10527977;28;20195;-80
2022/09/17 14:45:41;;;;;;;1.92;1.00;;;15.30;1.00;;;;;;10512930;28;20256;-80
2022/09/17 14:51:21;;;;;;;4.72;1.10;;;15.20;99.90;;;;;;10542896;28;20491;-81
2022/09/17 14:56:53;;;;;;;2.20;1.30;;;15.10;1.00;;;;;;10513911;28;20199;-82
2022/09/17 15:02:31;;;;;;;1.75;1.20;;;15.00;1.00;;;;;;10534392;28;20208;-81
2022/09/17 15:08:14;;;;;;;4.45;1.52;;;14.90;1.00;;;;;;10539727;28;20219;-81
2022/09/17 15:13:57;;;;;;;3.08;1.60;;;14.80;1.00;;;;;;10539372;28;20203;-86
2022/09/17 15:19:35;;;;;;;6.45;2.97;;;14.70;1.00;;;;;;10538636;28;20208;-81
2022/09/17 15:25:03;;;;;;;5.55;2.88;;;14.60;1.00;;;;;;10537987;28;20189;-80
2022/09/17 15:30:25;;;;;;;8.73;2.75;;;14.50;1.00;;;;;;10538502;28;20309;-81
2022/09/17 15:36:16;;;;;;;3.53;1.48;;;14.60;1.00;;;;;;10567053;28;20190;-82
2022/09/17 15:41:38;;;;;;;4.25;1.50;;;14.80;1.00;;;;;;10567756;28;20193;-82
2022/09/17 15:47:38;;;;;;;4.28;2.67;;;14.70;99.90;;;;;;10551915;28;20494;-81
2022/09/17 15:53:08;;;;;;;5.00;2.70;;;14.70;1.00;;;;;;10564555;28;20417;-81
2022/09/17 15:58:35;;;;;;;3.50;2.20;;;14.50;1.00;;;;;;10551575;28;20281;-82
2022/09/17 16:04:15;;;;;;;6.88;4.15;;;14.40;1.00;;;;;;10551210;28;20195;-81
2022/09/17 16:09:40;;;;;;;6.95;3.75;;;14.20;1.00;;;;;;10565427;28;20293;-82
2022/09/17 16:15:01;;;;;;;8.57;3.23;;;14.00;1.00;;;;;;10565032;28;20190;-80
2022/09/17 16:20:24;;;;;;;7.50;3.80;;;13.80;1.00;;;;;;10550207;28;20199;-81
2022/09/17 16:25:49;;;;;;;7.87;4.20;;;13.70;1.00;;;;;;10530184;28;20212;-79
2022/09/17 16:31:12;;;;;;;19.57;10.23;;;13.60;1.00;;;;;;10565827;28;20232;-85
2022/09/17 16:36:34;;;;;;;9.80;5.17;;;13.60;1.00;;;;;;10550724;28;20202;-81
2022/09/17 16:41:55;;;;;;;10.77;5.77;;;13.60;1.00;;;;;;10549590;28;20192;-80
2022/09/17 16:47:16;;;;;;;11.20;6.20;;;13.50;1.00;;;;;;10564152;28;20261;-83
2022/09/17 16:52:38;;;;;;;8.80;5.30;;;13.30;10.10;;;;;;10564841;28;20215;-81
2022/09/17 16:57:59;;;;;;;9.60;6.00;;;13.30;1.00;;;;;;10549293;28;20204;-80
2022/09/17 17:03:20;;;;;;;7.03;4.20;;;13.30;1.00;;;;;;10534872;28;20205;-80
2022/09/17 17:08:42;;;;;;;8.97;5.20;;;13.30;4.80;;;;;;10548654;28;20225;-80
2022/09/17 17:14:04;;;;;;;9.83;6.17;;;13.30;17.80;;;;;;10562854;28;20466;-81
2022/09/17 17:19:25;;;;;;;12.20;6.97;;;13.20;52.50;;;;;;10562084;28;20195;-80
2022/09/17 17:24:47;;;;;;;13.90;7.70;;;13.10;1.30;;;;;;10516284;28;20195;-83
2022/09/17 17:30:10;;;;;;;11.00;6.97;;;12.90;1.00;;;;;;10520517;28;20228;-81
2022/09/17 17:35:31;;;;;;;8.23;4.77;;;12.90;1.00;;;;;;10520613;28;20190;-83
2022/09/17 17:41:07;;;;;;;8.53;3.83;;;12.70;1.00;;;;;;10505935;28;20237;-80
2022/09/17 17:46:28;;;;;;;10.40;4.40;;;12.70;1.00;;;;;;10519797;28;20225;-84
2022/09/17 17:51:52;;;;;;;5.97;2.87;;;12.60;47.30;;;;;;10534098;28;20208;-80
2022/09/17 17:57:13;;;;;;;5.47;2.77;;;12.60;99.90;;;;;;10547536;28;20383;-80
2022/09/17 18:02:34;;;;;;;10.30;7.07;;;12.50;97.20;;;;;;10561664;28;20204;-85
2022/09/17 18:07:56;;;;;;;16.23;9.93;;;12.50;99.90;;;;;;10548207;28;20217;-80
2022/09/17 18:13:17;;;;;;;21.50;11.73;;;12.50;99.90;;;;;;10547177;28;20211;-83
2022/09/17 18:18:41;;;;;;;24.10;13.23;;;12.50;99.90;;;;;;10538862;28;20200;-85
2022/09/17 18:24:04;;;;;;;35.07;19.27;;;12.50;99.90;;;;;;10552545;28;20267;-81
2022/09/17 18:29:25;;;;;;;27.80;16.50;;;12.40;99.90;;;;;;10571881;28;20221;-80
2022/09/17 18:34:47;;;;;;;31.77;11.27;;;12.40;99.90;;;;;;10559446;28;20203;-80
2022/09/17 18:40:08;;;;;;;26.53;10.93;;;12.30;99.90;;;;;;10562120;28;20271;-80
2022/09/17 18:45:30;;;;;;;17.10;7.23;;;12.20;99.90;;;;;;10561403;28;20266;-81
2022/09/17 18:51:01;;;;;;;10.23;5.63;;;12.20;99.90;;;;;;10546018;28;20196;-80
2022/09/17 18:56:28;;;;;;;9.30;5.10;;;12.20;99.90;;;;;;10545817;28;20422;-80
2022/09/17 19:01:49;;;;;;;16.07;8.03;;;12.10;99.90;;;;;;10561296;28;20200;-80
2022/09/17 19:07:11;;;;;;;25.60;11.13;;;12.00;99.90;;;;;;10559803;28;20224;-80
2022/09/17 19:12:32;;;;;;;31.53;12.30;;;11.90;99.90;;;;;;10549171;28;20214;-81
2022/09/17 19:17:54;;;;;;;27.33;12.77;;;11.90;99.90;;;;;;10552744;28;20285;-82
2022/09/17 19:23:15;;;;;;;27.47;12.43;;;11.90;99.90;;;;;;10559649;28;20485;-82
2022/09/17 19:28:36;;;;;;;23.60;7.90;;;11.80;99.90;;;;;;10553560;28;20230;-79
2022/09/17 19:33:58;;;;;;;13.47;7.33;;;11.80;99.90;;;;;;10566548;28;20259;-81
2022/09/17 19:39:19;;;;;;;12.33;5.57;;;11.80;99.90;;;;;;10552244;28;20274;-83
2022/09/17 19:44:42;;;;;;;10.73;4.50;;;11.70;99.90;;;;;;10537965;28;20383;-81
2022/09/17 19:50:03;;;;;;;11.17;3.97;;;11.70;99.90;;;;;;10566098;28;20238;-85
2022/09/17 19:55:24;;;;;;;11.00;4.97;;;11.70;99.90;;;;;;10551244;28;20532;-81
2022/09/17 20:00:46;;;;;;;10.77;6.43;;;11.60;99.90;;;;;;10555776;28;20192;-82
2022/09/17 20:06:09;;;;;;;11.50;6.20;;;11.60;99.90;;;;;;10509224;28;20232;-82
2022/09/17 20:11:31;;;;;;;8.33;4.73;;;11.60;99.90;;;;;;10509486;28;20218;-81
2022/09/17 20:16:52;;;;;;;6.53;3.90;;;11.60;99.90;;;;;;10509033;28;20196;-81
2022/09/17 20:22:13;;;;;;;18.87;8.97;;;11.60;99.90;;;;;;10534685;28;20428;-85
2022/09/17 20:27:34;;;;;;;14.70;7.67;;;11.60;99.90;;;;;;10515627;28;20215;-81
2022/09/17 20:32:56;;;;;;;8.93;4.40;;;11.60;99.90;;;;;;10508899;28;20235;-81
2022/09/17 20:38:17;;;;;;;8.17;2.63;;;11.50;99.90;;;;;;10508448;28;20218;-83
2022/09/17 20:43:58;;;;;;;3.97;2.27;;;11.50;99.90;;;;;;10522716;28;20191;-82
2022/09/17 20:49:20;;;;;;;5.87;2.33;;;11.50;99.90;;;;;;10516589;28;20429;-82
2022/09/17 20:54:41;;;;;;;4.90;2.00;;;11.50;99.90;;;;;;10549953;28;20192;-81
2022/09/17 21:00:16;;;;;;;4.73;2.57;;;11.50;99.90;;;;;;10549071;28;20208;-82
2022/09/17 21:05:37;;;;;;;4.07;2.23;;;11.40;99.90;;;;;;10549075;28;20198;-83
2022/09/17 21:11:03;;;;;;;7.97;2.47;;;11.40;99.90;;;;;;10563302;28;20193;-82
2022/09/17 21:16:25;;;;;;;5.73;2.10;;;11.30;99.90;;;;;;10562698;28;20190;-81
2022/09/17 21:21:47;;;;;;;5.77;2.57;;;11.30;99.90;;;;;;10543539;28;20203;-82
2022/09/17 21:27:08;;;;;;;6.63;2.40;;;11.20;99.90;;;;;;10562271;28;20223;-83
2022/09/17 21:32:29;;;;;;;4.93;2.27;;;11.20;99.90;;;;;;10547435;28;20226;-82
2022/09/17 21:37:51;;;;;;;6.97;2.87;;;11.20;99.90;;;;;;10561593;28;20208;-82
2022/09/17 21:43:12;;;;;;;5.67;2.70;;;11.20;99.90;;;;;;10562918;28;20469;-82
2022/09/17 21:48:36;;;;;;;6.17;2.67;;;11.20;99.90;;;;;;10517787;28;20523;-83
2022/09/17 21:53:59;;;;;;;4.50;2.50;;;11.20;99.90;;;;;;10537862;28;20220;-83
2022/09/17 21:59:21;;;;;;;6.00;2.50;;;11.30;99.90;;;;;;10546976;28;20223;-82
2022/09/17 22:04:42;;;;;;;7.70;2.83;;;11.20;99.90;;;;;;10519295;28;20377;-81
2022/09/17 22:10:04;;;;;;;7.20;2.30;;;11.30;99.90;;;;;;10519356;28;20226;-81
2022/09/17 22:15:26;;;;;;;8.23;2.57;;;11.40;99.90;;;;;;10524325;28;20289;-82
2022/09/17 22:20:47;;;;;;;7.17;2.53;;;11.40;99.90;;;;;;10546503;28;20490;-84
2022/09/17 22:26:10;;;;;;;6.07;2.50;;;11.30;99.90;;;;;;10546808;28;20258;-81
2022/09/17 22:31:31;;;;;;;6.00;2.13;;;11.20;99.90;;;;;;10531599;28;20546;-83
2022/09/17 22:36:53;;;;;;;5.00;2.33;;;11.30;99.90;;;;;;10560587;28;20534;-83
2022/09/17 22:42:14;;;;;;;10.20;4.00;;;11.30;99.90;;;;;;10531943;28;20547;-81
2022/09/17 22:47:36;;;;;;;10.17;4.47;;;11.30;99.90;;;;;;10535086;28;20225;-81
2022/09/17 22:52:57;;;;;;;9.13;4.27;;;11.30;99.90;;;;;;10554862;28;20185;-82
2022/09/17 22:58:20;;;;;;;8.90;3.83;;;11.30;99.90;;;;;;10572666;28;20191;-81
2022/09/17 23:03:42;;;;;;;4.63;2.23;;;11.30;99.90;;;;;;10544845;28;20241;-82
2022/09/17 23:09:03;;;;;;;6.43;1.80;;;11.30;99.90;;;;;;10512017;28;20427;-82
2022/09/17 23:14:25;;;;;;;4.67;1.97;;;11.30;99.90;;;;;;10526627;28;20187;-82
2022/09/17 23:19:46;;;;;;;6.67;1.50;;;11.30;99.90;;;;;;10541569;28;20445;-82
2022/09/17 23:25:07;;;;;;;4.40;1.90;;;11.20;99.90;;;;;;10567314;28;20195;-81
2022/09/17 23:30:29;;;;;;;4.07;1.80;;;11.30;99.90;;;;;;10566824;28;20227;-82
2022/09/17 23:35:50;;;;;;;5.13;2.10;;;11.20;99.90;;;;;;10567437;28;20508;-88
2022/09/17 23:41:15;;;;;;;4.40;1.80;;;11.20;99.90;;;;;;10552239;28;20267;-80
2022/09/17 23:46:37;;;;;;;6.47;2.40;;;11.20;99.90;;;;;;10551151;28;20238;-82
2022/09/17 23:51:58;;;;;;;4.80;2.17;;;11.20;99.90;;;;;;10526678;28;20266;-84
2022/09/17 23:57:21;;;;;;;6.90;2.07;;;11.10;99.90;;;;;;10509267;28;20200;-81
